Time;durP1;ratioP1;P1;durP2;ratioP2;P2;SDS_P1;SDS_P2;PMS_P1;PMS_P2;Temp;Humidity;BMP_temperature;BMP_pressure;BME280_temperature;BME280_humidity;BME280_pressure;Samples;Min_cycle;Max_cycle;Signal;HPM_P1;HPM_P2
2022/06/14 00:01:11;;;;;;;3.40;1.47;;;;;;;12.11;66.75;101529.94;5001509;28;20234;-82
2022/06/14 00:03:40;;;;;;;5.97;1.53;;;;;;;12.11;66.84;101536.16;5001062;28;20688;-80
2022/06/14 00:06:10;;;;;;;3.70;1.40;;;;;;;12.09;67.13;101540.72;5000485;28;20245;-80
2022/06/14 00:08:37;;;;;;;3.13;1.40;;;;;;;12.05;67.13;101527.59;4993357;28;20769;-80
2022/06/14 00:11:07;;;;;;;3.23;1.47;;;;;;;12.03;67.23;101534.84;4998603;28;20236;-80
2022/06/14 00:13:33;;;;;;;4.60;1.70;;;;;;;12.01;67.29;101539.41;4993934;28;20197;-82
2022/06/14 00:16:00;;;;;;;3.27;1.70;;;;;;;11.94;67.27;101538.91;5001064;28;20211;-80
2022/06/14 00:18:26;;;;;;;2.73;1.63;;;;;;;11.89;67.33;101537.41;4997063;28;20218;-80
2022/06/14 00:20:53;;;;;;;2.87;1.40;;;;;;;11.83;67.76;101542.13;4996813;28;20321;-82
2022/06/14 00:23:22;;;;;;;3.23;1.53;;;;;;;11.77;67.91;101547.81;4997398;28;20208;-81
2022/06/14 00:25:52;;;;;;;3.70;1.47;;;;;;;11.70;68.02;101549.06;4995797;28;20236;-81
2022/06/14 00:28:21;;;;;;;3.73;1.73;;;;;;;11.64;68.36;101545.88;4990487;28;20220;-80
2022/06/14 00:30:50;;;;;;;4.10;1.60;;;;;;;11.60;68.74;101546.97;4995628;28;20289;-81
2022/06/14 00:33:17;;;;;;;3.97;1.50;;;;;;;11.57;68.89;101544.47;4996123;28;20222;-81
2022/06/14 00:35:44;;;;;;;3.97;1.80;;;;;;;11.55;69.29;101549.00;4997701;28;20199;-82
2022/06/14 00:38:22;;;;;;;3.60;1.77;;;;;;;11.53;69.21;101546.41;4997418;28;20216;-83
2022/06/14 00:40:55;;;;;;;3.87;1.43;;;;;;;11.50;68.81;101551.91;4998320;28;20215;-84
2022/06/14 00:43:22;;;;;;;2.73;1.40;;;;;;;11.45;68.96;101541.50;4999264;28;20214;-83
2022/06/14 00:46:13;;;;;;;2.20;1.43;;;;;;;11.38;68.85;101547.22;4997528;28;20228;-81
2022/06/14 00:48:41;;;;;;;2.83;1.10;;;;;;;11.35;69.02;101552.72;4997716;28;20200;-82
2022/06/14 00:51:11;;;;;;;4.07;1.50;;;;;;;11.33;69.20;101555.47;4989896;28;20228;-82
2022/06/14 00:53:43;;;;;;;3.97;1.57;;;;;;;11.30;69.11;101557.41;4998200;28;20303;-81
2022/06/14 00:56:17;;;;;;;2.67;1.20;;;;;;;11.27;68.90;101549.59;5000054;28;20235;-82
2022/06/14 00:58:46;;;;;;;2.60;1.20;;;;;;;11.23;68.76;101548.03;5000958;28;20214;-79
2022/06/14 01:01:17;;;;;;;4.97;1.33;;;;;;;11.17;68.29;101553.69;5000289;28;20228;-80
2022/06/14 01:03:48;;;;;;;1.93;1.47;;;;;;;11.13;68.68;101543.16;4999316;28;20203;-80
2022/06/14 01:06:18;;;;;;;4.43;1.37;;;;;;;11.09;68.58;101538.94;5000326;28;20223;-80
2022/06/14 01:08:49;;;;;;;4.10;1.30;;;;;;;11.04;68.48;101535.66;4999705;28;20211;-81
2022/06/14 01:11:25;;;;;;;2.63;1.40;;;;;;;10.97;68.33;101533.38;4982364;28;20666;-81
2022/06/14 01:13:52;;;;;;;2.50;1.20;;;;;;;10.91;68.69;101525.69;4996350;28;20205;-80
2022/06/14 01:16:18;;;;;;;2.30;1.40;;;;;;;10.85;68.97;101515.34;4999533;28;20210;-82
2022/06/14 01:18:45;;;;;;;1.77;0.93;;;;;;;10.84;69.43;101518.94;4999730;28;20225;-81
2022/06/14 01:21:12;;;;;;;2.77;1.50;;;;;;;10.82;69.77;101532.34;4999695;28;20224;-80
2022/06/14 01:23:40;;;;;;;3.07;1.37;;;;;;;10.84;70.58;101521.59;4991539;28;20209;-80
2022/06/14 01:26:15;;;;;;;3.23;1.60;;;;;;;10.86;70.52;101527.72;4998410;28;20227;-80
2022/06/14 01:28:46;;;;;;;2.70;1.13;;;;;;;10.86;70.62;101525.94;5000027;28;20237;-83
2022/06/14 01:31:15;;;;;;;5.83;1.97;;;;;;;10.86;70.90;101525.94;4986136;28;20231;-80
2022/06/14 01:33:46;;;;;;;1.83;1.23;;;;;;;10.86;70.75;101541.91;5000729;28;20578;-80
2022/06/14 01:36:17;;;;;;;2.07;1.53;;;;;;;10.85;71.23;101532.19;4996556;28;20319;-80
2022/06/14 01:38:46;;;;;;;4.07;1.37;;;;;;;10.83;71.54;101528.75;5000000;28;20199;-81
2022/06/14 01:41:27;;;;;;;3.73;1.20;;;;;;;10.82;71.49;101531.47;4999884;28;20235;-80
2022/06/14 01:44:08;;;;;;;2.63;1.20;;;;;;;10.79;71.21;101532.50;4999908;28;20200;-80
2022/06/14 01:46:43;;;;;;;4.10;1.40;;;;;;;10.78;71.74;101536.09;4993910;28;20247;-80
2022/06/14 01:52:17;;;;;;;3.40;1.50;;;;;;;10.72;72.11;101531.09;4999072;28;20251;-80
2022/06/14 01:54:53;;;;;;;3.00;1.40;;;;;;;10.71;72.19;101521.38;4998173;28;20198;-80
2022/06/14 01:57:36;;;;;;;3.47;1.40;;;;;;;10.69;71.77;101532.09;4996376;28;20825;-81
2022/06/14 02:00:07;;;;;;;5.20;1.10;;;;;;;10.62;71.40;101524.47;4993851;28;20552;-80
2022/06/14 02:02:40;;;;;;;4.10;1.50;;;;;;;10.56;71.97;101527.47;4998827;28;20643;-82
2022/06/14 02:05:19;;;;;;;2.90;1.70;;;;;;;10.49;71.97;101532.22;4997799;28;20208;-82
2022/06/14 02:07:57;;;;;;;2.37;1.20;;;;;;;10.44;72.23;101532.44;4998468;28;20282;-80
2022/06/14 02:10:33;;;;;;;4.13;1.63;;;;;;;10.42;72.48;101531.66;4998400;28;20192;-81
2022/06/14 02:13:08;;;;;;;3.03;1.43;;;;;;;10.40;72.69;101525.53;4998584;28;20676;-81
2022/06/14 02:15:43;;;;;;;3.87;1.30;;;;;;;10.40;72.90;101530.84;4999209;28;20226;-81
2022/06/14 02:18:19;;;;;;;8.43;2.23;;;;;;;10.37;72.95;101531.03;4995583;28;20286;-81
2022/06/14 02:20:53;;;;;;;2.53;1.40;;;;;;;10.35;73.26;101529.38;4995944;28;20227;-80
2022/06/14 02:23:21;;;;;;;3.00;1.80;;;;;;;10.32;73.32;101522.41;4998177;28;20206;-82
2022/06/14 02:25:56;;;;;;;5.53;1.77;;;;;;;10.30;72.96;101521.59;4995406;28;20208;-79
2022/06/14 02:28:29;;;;;;;6.77;1.80;;;;;;;10.25;73.06;101514.75;4995103;28;20203;-79
2022/06/14 02:31:00;;;;;;;5.30;1.20;;;;;;;10.21;73.51;101518.53;4995782;28;20257;-81
2022/06/14 02:33:34;;;;;;;3.10;1.23;;;;;;;10.16;73.45;101524.03;4998947;28;20203;-82
2022/06/14 02:36:05;;;;;;;2.63;1.70;;;;;;;10.16;74.15;101531.16;4998113;28;20199;-80
2022/06/14 02:38:36;;;;;;;5.43;1.53;;;;;;;10.16;74.04;101542.66;4997560;28;20294;-79
2022/06/14 02:41:09;;;;;;;4.67;1.57;;;;;;;10.16;74.37;101540.00;4996343;28;20227;-79
2022/06/14 02:43:42;;;;;;;2.57;1.57;;;;;;;10.16;74.14;101541.81;4993117;28;20196;-79
2022/06/14 02:46:13;;;;;;;3.90;1.73;;;;;;;10.12;74.14;101545.53;4996261;28;20563;-79
2022/06/14 02:48:46;;;;;;;3.93;1.30;;;;;;;10.06;73.80;101538.69;4995023;28;20214;-79
2022/06/14 02:51:17;;;;;;;3.70;1.60;;;;;;;10.00;74.40;101542.53;4995968;28;20265;-79
2022/06/14 02:53:48;;;;;;;2.17;1.33;;;;;;;9.98;74.52;101549.72;4990609;28;20206;-81
2022/06/14 02:56:22;;;;;;;4.43;1.37;;;;;;;9.98;74.24;101552.38;4987585;28;20204;-80
2022/06/14 02:58:54;;;;;;;2.23;1.20;;;;;;;9.97;73.90;101545.31;4991239;28;20577;-80
2022/06/14 03:01:26;;;;;;;6.50;1.60;;;;;;;9.97;74.45;101552.44;4993345;28;20714;-80
2022/06/14 03:03:58;;;;;;;2.57;1.43;;;;;;;9.95;74.19;101556.97;4995115;28;20202;-82
2022/06/14 03:06:31;;;;;;;4.00;2.30;;;;;;;9.94;73.64;101548.13;4995652;28;20222;-80
2022/06/14 03:09:02;;;;;;;3.13;1.80;;;;;;;9.90;73.88;101548.34;4991073;28;20776;-83
2022/06/14 03:11:38;;;;;;;2.70;1.60;;;;;;;9.81;73.70;101538.13;4993488;28;20238;-80
2022/06/14 03:14:16;;;;;;;3.77;1.80;;;;;;;9.72;74.15;101536.75;4994436;28;20203;-81
2022/06/14 03:16:53;;;;;;;2.03;1.30;;;;;;;9.62;74.07;101544.28;4992230;28;20544;-82
2022/06/14 03:19:26;;;;;;;4.13;1.70;;;;;;;9.53;73.35;101550.00;4981960;28;20215;-80
2022/06/14 03:21:59;;;;;;;3.83;1.30;;;;;;;9.45;74.54;101546.84;4988277;28;20219;-85
2022/06/14 03:24:33;;;;;;;4.13;1.57;;;;;;;9.41;74.33;101547.91;4992932;28;20613;-84
2022/06/14 03:27:12;;;;;;;4.20;1.97;;;;;;;9.41;74.61;101545.25;4983087;28;20226;-82
2022/06/14 03:29:45;;;;;;;3.07;1.50;;;;;;;9.42;75.26;101539.00;4986154;28;20222;-80
2022/06/14 03:32:16;;;;;;;4.07;1.70;;;;;;;9.43;75.15;101540.72;4990221;28;20959;-80
2022/06/14 03:34:47;;;;;;;2.77;1.50;;;;;;;9.45;75.11;101541.53;4990055;28;20196;-81
2022/06/14 03:37:14;;;;;;;3.73;1.43;;;;;;;9.46;75.01;101540.59;4989650;28;20215;-81
2022/06/14 03:39:48;;;;;;;1.83;1.20;;;;;;;9.47;75.59;101542.31;4991013;28;20270;-79
2022/06/14 03:42:16;;;;;;;2.93;1.30;;;;;;;9.50;75.21;101544.81;4987047;28;20725;-80
2022/06/14 03:44:44;;;;;;;2.53;1.40;;;;;;;9.50;75.59;101544.81;4984852;28;20560;-81
2022/06/14 03:47:28;;;;;;;6.30;1.80;;;;;;;9.50;75.15;101541.28;4986231;28;20263;-82
2022/06/14 03:50:00;;;;;;;2.27;1.60;;;;;;;9.50;75.79;101541.28;4985295;28;20231;-82
2022/06/14 03:52:48;;;;;;;2.47;1.60;;;;;;;9.49;75.63;101535.13;4988537;28;20232;-81
2022/06/14 03:55:35;;;;;;;3.03;1.83;;;;;;;9.51;76.12;101549.19;4988544;28;20227;-80
2022/06/14 03:58:17;;;;;;;2.70;1.77;;;;;;;9.56;76.56;101560.50;4993265;28;20195;-81
2022/06/14 04:00:50;;;;;;;4.87;1.80;;;;;;;9.59;76.36;101563.03;4991363;28;20219;-82
2022/06/14 04:03:47;;;;;;;3.23;1.90;;;;;;;9.65;76.53;101572.56;4990485;28;20629;-80
2022/06/14 04:06:23;;;;;;;3.77;1.70;;;;;;;9.69;76.75;101559.00;4990308;28;20215;-82
2022/06/14 04:09:01;;;;;;;6.63;1.90;;;;;;;9.71;77.02;101554.50;4993023;28;20207;-82
2022/06/14 04:11:41;;;;;;;3.83;1.80;;;;;;;9.77;77.01;101560.47;4991923;28;20704;-79
2022/06/14 04:14:22;;;;;;;3.53;1.80;;;;;;;9.83;77.30;101554.88;4996402;28;20689;-79
2022/06/14 04:16:55;;;;;;;3.63;1.80;;;;;;;9.85;77.78;101561.88;4994764;28;20651;-80
2022/06/14 04:19:31;;;;;;;4.30;1.77;;;;;;;9.88;76.94;101553.72;4992873;28;20203;-81
2022/06/14 04:22:06;;;;;;;4.93;2.13;;;;;;;9.87;77.08;101554.66;4985720;28;20277;-81
2022/06/14 04:24:40;;;;;;;4.50;2.27;;;;;;;9.85;77.18;101545.91;4988757;28;20200;-80
2022/06/14 04:27:13;;;;;;;3.60;1.80;;;;;;;9.86;77.48;101546.75;4987294;28;20227;-82
2022/06/14 04:29:49;;;;;;;4.70;1.97;;;;;;;9.89;78.14;101549.25;4992805;28;20204;-82
2022/06/14 04:32:21;;;;;;;4.73;2.30;;;;;;;9.92;78.29;101549.13;4992636;28;20219;-81
2022/06/14 04:34:52;;;;;;;4.03;2.30;;;;;;;9.95;78.61;101543.66;4991667;28;20207;-82
2022/06/14 04:37:23;;;;;;;4.10;2.03;;;;;;;9.97;78.33;101552.44;4988003;28;20233;-81
2022/06/14 04:39:57;;;;;;;6.43;2.43;;;;;;;10.01;78.24;101546.06;4988297;28;20226;-80
2022/06/14 04:42:30;;;;;;;3.60;1.90;;;;;;;10.05;78.83;101534.31;4990262;28;20223;-80
2022/06/14 04:45:07;;;;;;;5.57;2.27;;;;;;;10.10;79.27;101538.50;4990950;28;20210;-83
2022/06/14 04:47:46;;;;;;;4.40;2.17;;;;;;;10.17;78.83;101543.53;4992015;28;20553;-82
2022/06/14 04:50:17;;;;;;;9.97;2.83;;;;;;;10.23;79.59;101548.56;4992008;28;20216;-81
2022/06/14 04:52:47;;;;;;;5.73;2.20;;;;;;;10.28;79.68;101557.22;4990332;28;20801;-83
2022/06/14 04:55:19;;;;;;;3.93;1.90;;;;;;;10.32;79.73;101557.00;4993533;28;20207;-81
2022/06/14 04:57:54;;;;;;;2.27;1.63;;;;;;;10.37;80.11;101562.13;4993031;28;20206;-83
2022/06/14 05:00:27;;;;;;;3.90;2.27;;;;;;;10.43;79.58;101564.47;4986476;28;20207;-81
2022/06/14 05:03:09;;;;;;;5.83;2.23;;;;;;;10.46;79.59;101559.00;4993489;28;20227;-86
2022/06/14 05:05:41;;;;;;;4.67;2.10;;;;;;;10.50;79.91;101552.59;4992730;28;20239;-83
2022/06/14 05:08:13;;;;;;;5.43;2.43;;;;;;;10.53;79.95;101556.91;4992823;28;20208;-85
2022/06/14 05:10:45;;;;;;;7.00;2.40;;;;;;;10.57;80.34;101553.16;4989636;28;20565;-83
2022/06/14 05:13:16;;;;;;;4.83;2.50;;;;;;;10.61;80.11;101555.59;4991940;28;20789;-84
2022/06/14 05:15:49;;;;;;;6.17;2.60;;;;;;;10.65;79.90;101562.50;4993596;28;20206;-83
2022/06/14 05:18:23;;;;;;;3.40;2.00;;;;;;;10.73;80.52;101567.47;4989104;28;20322;-81
2022/06/14 05:20:55;;;;;;;6.13;2.83;;;;;;;10.81;80.64;101567.06;4990782;28;20219;-82
2022/06/14 05:23:27;;;;;;;6.60;2.43;;;;;;;10.89;80.39;101559.56;4994381;28;20662;-80
2022/06/14 05:26:02;;;;;;;6.57;2.60;;;;;;;10.94;80.25;101569.03;4991264;28;20199;-81
2022/06/14 05:28:36;;;;;;;4.47;2.80;;;;;;;11.00;80.61;101570.53;4990379;28;20308;-82
2022/06/14 05:31:15;;;;;;;5.27;2.40;;;;;;;11.06;80.68;101565.75;4990984;28;20239;-80
2022/06/14 05:33:51;;;;;;;3.93;2.10;;;;;;;11.13;80.70;101563.63;4992927;28;20683;-85
2022/06/14 05:36:23;;;;;;;6.43;2.60;;;;;;;11.21;81.02;101572.13;4993360;28;20677;-83
2022/06/14 05:38:57;;;;;;;5.23;1.93;;;;;;;11.32;81.03;101576.88;4989184;28;20243;-84
2022/06/14 05:41:31;;;;;;;4.70;2.30;;;;;;;11.42;81.35;101579.00;4990603;28;20251;-84
2022/06/14 05:44:06;;;;;;;5.23;2.63;;;;;;;11.53;81.71;101575.75;4991614;28;20215;-84
2022/06/14 05:46:38;;;;;;;5.77;2.33;;;;;;;11.64;81.79;101576.09;4992287;28;20267;-83
2022/06/14 05:49:08;;;;;;;6.47;2.80;;;;;;;11.73;81.94;101585.38;4990478;28;20235;-81
2022/06/14 05:51:40;;;;;;;7.10;2.70;;;;;;;11.80;81.91;101585.03;4985110;28;20229;-82
2022/06/14 05:54:15;;;;;;;4.93;2.60;;;;;;;11.91;82.01;101575.56;4989475;28;20227;-85
2022/06/14 05:56:46;;;;;;;5.23;2.47;;;;;;;11.99;81.92;101581.38;4987660;28;20201;-82
2022/06/14 05:59:19;;;;;;;5.00;2.33;;;;;;;12.09;81.79;101572.75;4992479;28;20212;-83
2022/06/14 06:01:54;;;;;;;6.13;2.70;;;;;;;12.21;81.68;101578.34;4986362;28;20220;-83
2022/06/14 06:04:27;;;;;;;3.47;1.97;;;;;;;12.32;81.79;101576.84;4993375;28;20556;-82
2022/06/14 06:06:58;;;;;;;6.97;2.50;;;;;;;12.41;81.34;101573.63;4987082;28;20212;-82
2022/06/14 06:09:30;;;;;;;6.20;2.67;;;;;;;12.52;81.17;101573.91;4988758;28;20289;-82
2022/06/14 06:12:00;;;;;;;5.23;2.47;;;;;;;12.63;80.18;101578.63;4979778;28;20231;-82
2022/06/14 06:14:33;;;;;;;5.40;2.43;;;;;;;12.74;79.98;101586.88;4992431;28;20672;-81
2022/06/14 06:17:05;;;;;;;5.77;2.63;;;;;;;12.84;79.15;101588.09;4985756;28;20204;-83
2022/06/14 06:19:36;;;;;;;5.20;2.40;;;;;;;12.94;78.42;101585.72;4989537;28;20196;-81
2022/06/14 06:22:10;;;;;;;3.93;2.23;;;;;;;13.06;78.03;101600.22;4993816;28;20246;-86
2022/06/14 06:24:47;;;;;;;6.23;2.70;;;;;;;13.18;77.48;101596.84;4991815;28;20716;-82
2022/06/14 06:27:14;;;;;;;6.37;1.93;;;;;;;13.33;77.26;101590.56;4989730;28;20229;-83
2022/06/14 06:29:53;;;;;;;7.33;2.27;;;;;;;13.52;76.91;101596.53;4986207;28;20208;-82
2022/06/14 06:32:25;;;;;;;4.30;1.90;;;;;;;13.65;75.78;101590.44;4988788;28;20469;-82
2022/06/14 06:34:52;;;;;;;5.17;2.13;;;;;;;13.75;74.51;101600.50;4985467;28;20200;-82
2022/06/14 06:37:25;;;;;;;5.60;1.97;;;;;;;13.83;74.07;101603.53;4987525;28;20224;-82
2022/06/14 06:39:58;;;;;;;5.37;1.93;;;;;;;13.93;73.18;101603.00;4986435;28;20699;-82
2022/06/14 06:42:29;;;;;;;6.40;2.17;;;;;;;14.00;72.57;101601.63;4991041;28;20233;-82
2022/06/14 06:44:58;;;;;;;6.23;2.27;;;;;;;14.07;72.21;101598.50;4987736;28;20235;-82
2022/06/14 06:47:31;;;;;;;3.93;1.73;;;;;;;14.16;71.58;101605.06;4988727;28;20295;-82
2022/06/14 06:50:31;;;;;;;8.87;1.83;;;;;;;14.25;71.54;101601.81;4989766;28;20203;-82
2022/06/14 06:53:03;;;;;;;4.53;1.87;;;;;;;14.32;70.55;101600.50;4975276;28;20253;-82
2022/06/14 06:55:42;;;;;;;6.73;1.77;;;;;;;14.43;70.80;101594.47;4986338;28;20216;-82
2022/06/14 06:58:17;;;;;;;3.03;1.47;;;;;;;14.54;70.35;101598.16;4989317;28;20215;-83
2022/06/14 07:00:46;;;;;;;3.17;1.50;;;;;;;14.68;69.91;101593.75;4987365;28;20293;-84
2022/06/14 07:03:20;;;;;;;5.30;1.80;;;;;;;14.75;68.82;101584.31;4991496;28;20210;-82
2022/06/14 07:05:51;;;;;;;4.30;1.63;;;;;;;14.82;68.14;101591.00;4985751;28;20203;-83
2022/06/14 07:08:23;;;;;;;7.33;2.07;;;;;;;14.84;67.46;101589.94;4991034;28;20238;-81
2022/06/14 07:10:53;;;;;;;4.27;1.60;;;;;;;14.99;68.04;101589.88;4991220;28;20223;-81
2022/06/14 07:13:27;;;;;;;5.07;1.70;;;;;;;15.16;66.79;101595.84;4986948;28;20209;-81
2022/06/14 07:16:01;;;;;;;3.90;1.70;;;;;;;15.33;66.59;101592.00;4988053;28;20614;-83
2022/06/14 07:18:33;;;;;;;5.50;1.90;;;;;;;15.44;65.46;101594.81;4990546;28;20208;-82
2022/06/14 07:21:08;;;;;;;3.43;1.60;;;;;;;15.50;64.95;101596.22;4990520;28;20220;-81
2022/06/14 07:23:45;;;;;;;5.23;1.60;;;;;;;15.58;64.74;101596.59;4989148;28;20541;-83
2022/06/14 07:26:23;;;;;;;5.27;1.97;;;;;;;15.65;64.02;101591.63;4990026;28;20210;-82
2022/06/14 07:28:56;;;;;;;7.23;1.83;;;;;;;15.69;63.54;101593.16;4989699;28;20221;-83
2022/06/14 07:31:30;;;;;;;10.67;1.60;;;;;;;15.74;63.16;101589.19;4990208;28;20238;-81
2022/06/14 07:33:58;;;;;;;4.93;1.87;;;;;;;15.85;62.71;101589.28;4987422;28;20200;-83
2022/06/14 07:36:34;;;;;;;5.53;2.00;;;;;;;15.97;62.56;101591.09;4985344;28;20282;-81
2022/06/14 07:39:06;;;;;;;5.97;1.87;;;;;;;16.13;62.26;101584.63;4986120;28;20205;-81
2022/06/14 07:41:44;;;;;;;4.93;1.60;;;;;;;16.27;61.23;101584.50;4988317;28;20229;-81
2022/06/14 07:44:20;;;;;;;3.37;1.10;;;;;;;16.40;60.46;101585.31;4990368;28;20553;-82
2022/06/14 07:46:59;;;;;;;3.83;1.33;;;;;;;16.56;59.71;101588.59;4991172;28;20208;-86
2022/06/14 07:49:34;;;;;;;5.40;1.40;;;;;;;16.71;59.51;101588.47;4988692;28;20260;-82
2022/06/14 07:52:09;;;;;;;3.93;1.00;;;;;;;16.86;58.29;101581.94;4991529;28;20221;-81
2022/06/14 07:54:40;;;;;;;2.60;0.90;;;;;;;16.98;56.65;101575.66;4989670;28;20207;-82
2022/06/14 07:57:11;;;;;;;2.30;1.03;;;;;;;17.11;55.63;101587.19;4992711;28;20214;-84
2022/06/14 07:59:43;;;;;;;3.83;1.40;;;;;;;17.24;54.79;101576.34;4988595;28;20206;-84
2022/06/14 08:02:17;;;;;;;4.77;1.23;;;;;;;17.33;54.02;101587.28;4994833;28;20227;-82
2022/06/14 08:04:53;;;;;;;4.10;1.10;;;;;;;17.41;53.57;101577.75;4990533;28;20545;-83
2022/06/14 08:07:20;;;;;;;3.10;1.30;;;;;;;17.55;53.60;101581.09;4993268;28;20200;-84
2022/06/14 08:09:53;;;;;;;5.67;1.60;;;;;;;17.74;53.15;101583.22;4994459;28;20239;-81
2022/06/14 08:12:23;;;;;;;4.10;1.03;;;;;;;17.88;52.26;101577.63;4994792;28;20240;-81
2022/06/14 08:14:56;;;;;;;3.23;0.87;;;;;;;18.03;52.18;101581.78;4992618;28;20208;-86
2022/06/14 08:17:30;;;;;;;4.23;1.00;;;;;;;18.20;51.64;101571.50;4991942;28;20720;-81
2022/06/14 08:20:02;;;;;;;2.13;0.90;;;;;;;18.35;50.72;101567.53;4988143;28;20201;-81
2022/06/14 08:22:36;;;;;;;3.90;0.90;;;;;;;18.49;50.80;101563.72;4986884;28;20225;-84
2022/06/14 08:25:09;;;;;;;4.50;1.10;;;;;;;18.67;50.26;101571.19;4994147;28;20208;-82
2022/06/14 08:27:41;;;;;;;3.23;1.00;;;;;;;18.81;49.02;101571.91;4990495;28;20213;-81
2022/06/14 08:30:12;;;;;;;3.20;1.07;;;;;;;18.88;49.59;101573.09;4992469;28;20567;-82
2022/06/14 08:32:44;;;;;;;3.77;1.13;;;;;;;19.04;48.95;101576.22;4989781;28;20227;-81
2022/06/14 08:35:19;;;;;;;3.40;1.27;;;;;;;19.16;48.07;101574.34;4990453;28;20202;-82
2022/06/14 08:37:54;;;;;;;4.40;1.27;;;;;;;19.29;47.22;101565.06;4994158;28;20217;-82
2022/06/14 08:40:46;;;;;;;4.73;1.60;;;;;;;19.44;47.59;101565.56;4995931;28;20260;-81
2022/06/14 08:43:15;;;;;;;3.10;1.03;;;;;;;19.63;47.02;101565.72;4981194;28;22227;-81
2022/06/14 08:45:46;;;;;;;3.47;1.20;;;;;;;19.80;46.35;101571.50;4992074;28;20207;-81
2022/06/14 08:48:34;;;;;;;4.20;1.20;;;;;;;19.93;45.70;101567.59;4987584;28;20227;-81
2022/06/14 08:51:29;;;;;;;1.53;0.87;;;;;;;20.06;45.31;101564.66;4992498;28;20227;-83
2022/06/14 08:54:22;;;;;;;6.47;1.15;;;;;;;20.15;44.71;101571.09;4991412;28;20232;-82
2022/06/14 08:57:16;;;;;;;6.70;1.47;;;;;;;20.15;44.30;101571.94;4984501;28;20212;-85
2022/06/14 09:00:01;;;;;;;3.27;1.17;;;;;;;20.09;44.31;101570.63;4987113;28;20223;-86
2022/06/14 09:02:59;;;;;;;2.90;1.17;;;;;;;20.02;44.60;101574.91;4994450;28;20225;-81
2022/06/14 09:05:48;;;;;;;3.70;1.10;;;;;;;20.01;44.68;101575.88;4996779;28;20206;-85
2022/06/14 09:08:53;;;;;;;3.17;1.37;;;;;;;19.94;45.14;101573.84;4994052;28;20215;-81
2022/06/14 09:12:18;;;;;;;7.13;1.47;;;;;;;19.81;45.61;101576.78;4992921;28;20609;-82
2022/06/14 09:15:30;;;;;;;4.10;1.10;;;;;;;19.67;45.15;101571.72;4988301;28;20251;-81
2022/06/14 09:18:11;;;;;;;3.40;1.10;;;;;;;19.57;45.50;101571.66;4992801;28;20212;-82
2022/06/14 09:20:42;;;;;;;4.27;1.30;;;;;;;19.55;45.81;101580.88;4989046;28;20245;-83
2022/06/14 09:23:19;;;;;;;3.23;1.27;;;;;;;19.56;45.96;101572.63;4997320;28;20219;-82
2022/06/14 09:26:12;;;;;;;4.67;1.30;;;;;;;19.65;46.19;101576.41;4995960;28;20229;-81
2022/06/14 09:29:21;;;;;;;3.67;1.10;;;;;;;19.72;45.67;101566.75;4993013;28;20224;-82
2022/06/14 09:32:20;;;;;;;4.47;1.27;;;;;;;19.68;44.85;101559.94;4987275;28;20252;-82
2022/06/14 09:35:06;;;;;;;4.60;1.30;;;;;;;19.67;44.29;101566.31;4994798;28;20212;-84
2022/06/14 09:38:02;;;;;;;2.93;1.20;;;;;;;19.65;44.09;101555.66;4992515;28;20225;-80
2022/06/14 09:40:48;;;;;;;5.97;1.60;;;;;;;19.68;44.47;101558.09;4989615;28;20668;-81
2022/06/14 09:43:49;;;;;;;3.57;1.43;;;;;;;19.74;44.48;101559.38;4998093;28;20213;-81
2022/06/14 09:46:45;;;;;;;2.90;1.37;;;;;;;19.79;44.21;101561.69;4998141;28;20207;-80
2022/06/14 09:49:48;;;;;;;3.40;1.23;;;;;;;19.94;44.99;101560.31;4996350;28;20700;-80
2022/06/14 09:53:02;;;;;;;3.03;1.10;;;;;;;20.11;44.03;101560.53;4999247;28;20232;-81
2022/06/14 09:55:55;;;;;;;3.57;1.27;;;;;;;20.19;42.93;101548.19;4993528;28;20559;-81
2022/06/14 09:58:39;;;;;;;2.87;1.40;;;;;;;20.23;42.01;101555.06;4974362;28;20210;-82
2022/06/14 10:01:17;;;;;;;3.47;1.13;;;;;;;20.28;42.16;101559.03;4998578;28;20234;-82
2022/06/14 10:04:17;;;;;;;4.57;1.48;;;;;;;20.30;42.69;101564.31;4999169;28;20206;-86
2022/06/14 10:07:08;;;;;;;4.67;1.50;;;;;;;20.32;42.88;101563.19;4993822;28;20204;-82
2022/06/14 10:09:59;;;;;;;3.77;1.30;;;;;;;20.30;43.22;101564.31;4996965;28;20232;-82
2022/06/14 10:12:45;;;;;;;3.33;1.50;;;;;;;20.27;43.45;101564.56;4994144;28;20712;-80
2022/06/14 10:15:19;;;;;;;4.07;1.23;;;;;;;20.23;43.66;101561.31;4997672;28;20205;-81
2022/06/14 10:18:13;;;;;;;4.60;1.50;;;;;;;20.26;43.61;101562.88;4997299;28;20202;-81
2022/06/14 10:20:49;;;;;;;4.17;1.13;;;;;;;20.32;43.81;101556.91;4995700;28;20235;-81
2022/06/14 10:23:31;;;;;;;4.80;1.50;;;;;;;20.40;43.60;101560.69;4997831;28;20208;-80
2022/06/14 10:29:04;;;;;;;2.30;1.20;;;;;;;20.59;43.01;101561.72;4988799;28;20296;-85
2022/06/14 10:31:46;;;;;;;3.73;1.40;;;;;;;20.63;42.36;101555.88;4997661;28;20696;-86
2022/06/14 10:34:24;;;;;;;3.37;1.30;;;;;;;20.69;42.09;101549.91;4997102;28;20218;-82
2022/06/14 10:37:11;;;;;;;2.53;1.07;;;;;;;20.74;41.50;101547.63;4990936;28;20232;-82
2022/06/14 10:39:58;;;;;;;4.40;1.33;;;;;;;20.78;41.02;101543.63;4994868;28;20261;-82
2022/06/14 10:42:30;;;;;;;2.03;1.10;;;;;;;20.86;41.80;101550.19;4990551;28;20231;-83
2022/06/14 10:45:04;;;;;;;4.80;1.35;;;;;;;20.93;41.17;101538.66;4995925;28;20206;-83
2022/06/14 10:47:51;;;;;;;3.37;1.13;;;;;;;20.97;40.75;101539.22;4997424;28;20295;-83
2022/06/14 10:50:43;;;;;;;2.15;1.08;;;;;;;21.01;40.75;101540.66;4994011;28;20227;-83
2022/06/14 10:53:20;;;;;;;4.30;1.42;;;;;;;21.12;40.99;101538.66;4997443;28;20232;-80
2022/06/14 10:56:16;;;;;;;2.35;1.30;;;;;;;21.28;40.40;101545.38;4998272;28;20214;-83
2022/06/14 10:59:08;;;;;;;4.23;1.20;;;;;;;21.31;39.70;101532.41;4991795;28;20712;-82
2022/06/14 11:01:47;;;;;;;2.75;1.40;;;;;;;21.29;39.57;101534.41;4986698;28;20231;-80
2022/06/14 11:04:23;;;;;;;3.67;1.27;;;;;;;21.30;40.08;101541.53;4995996;28;20219;-81
2022/06/14 11:07:12;;;;;;;2.65;1.25;;;;;;;21.30;40.62;101541.53;4991703;28;20214;-81
2022/06/14 11:09:56;;;;;;;2.80;1.10;;;;;;;21.36;41.28;101540.06;4989577;28;20314;-80
2022/06/14 11:12:40;;;;;;;3.65;1.42;;;;;;;21.47;41.71;101537.22;4994961;28;20234;-81
2022/06/14 11:15:15;;;;;;;4.07;1.30;;;;;;;21.52;40.87;101539.47;4997216;28;20664;-81
2022/06/14 11:18:06;;;;;;;3.17;1.65;;;;;;;21.50;40.95;101539.59;4993906;28;20307;-81
2022/06/14 11:20:46;;;;;;;3.35;1.08;;;;;;;21.50;40.37;101533.38;4996401;28;20211;-82
2022/06/14 11:23:20;;;;;;;3.80;1.45;;;;;;;21.46;40.22;101535.50;4993661;28;20769;-81
2022/06/14 11:25:53;;;;;;;4.45;1.48;;;;;;;21.44;40.28;101538.34;4994285;28;20688;-80
2022/06/14 11:28:28;;;;;;;2.35;1.05;;;;;;;21.45;40.33;101534.66;4995232;28;20294;-81
2022/06/14 11:31:05;;;;;;;3.75;1.17;;;;;;;21.50;40.10;101533.38;4996813;28;20313;-82
2022/06/14 11:33:48;;;;;;;4.90;1.42;;;;;;;21.54;39.92;101523.91;4989573;28;20221;-81
2022/06/14 11:36:37;;;;;;;4.32;1.10;;;;;;;21.57;39.72;101523.63;4997141;28;20221;-80
2022/06/14 11:39:19;;;;;;;3.22;1.40;;;;;;;21.55;39.60;101531.03;4995584;28;20210;-82
2022/06/14 11:41:47;;;;;;;5.15;1.55;;;;;;;21.58;39.16;101528.91;4996202;28;20235;-80
2022/06/14 11:44:30;;;;;;;4.07;1.45;;;;;;;21.60;38.96;101517.91;4996256;28;20203;-81
2022/06/14 11:47:05;;;;;;;6.45;1.38;;;;;;;21.62;39.44;101522.19;4993391;28;20202;-82
2022/06/14 11:49:38;;;;;;;4.18;1.80;;;;;;;21.62;39.91;101514.06;4989393;28;20225;-81
2022/06/14 11:52:22;;;;;;;4.25;1.30;;;;;;;21.62;40.37;101522.19;4995608;28;20235;-81
2022/06/14 11:55:01;;;;;;;2.20;1.13;;;;;;;21.62;40.00;101511.34;4992781;28;20209;-81
2022/06/14 11:57:36;;;;;;;4.47;1.48;;;;;;;21.66;40.50;101512.78;4985673;28;20233;-83
2022/06/14 12:00:13;;;;;;;4.25;1.38;;;;;;;21.75;40.28;101511.88;4989758;28;20199;-80
2022/06/14 12:02:43;;;;;;;3.55;1.50;;;;;;;21.83;40.20;101503.84;4992215;28;20229;-83
2022/06/14 12:05:25;;;;;;;3.60;1.38;;;;;;;21.99;40.12;101500.50;4990334;28;20570;-83
2022/06/14 12:08:01;;;;;;;3.05;1.40;;;;;;;22.12;39.07;101494.75;4989171;28;20204;-82
2022/06/14 12:10:54;;;;;;;3.92;1.65;;;;;;;22.23;38.91;101493.66;4992875;28;20219;-83
2022/06/14 12:14:00;;;;;;;3.78;1.30;;;;;;;22.25;39.05;101499.78;4993326;28;20295;-82
2022/06/14 12:16:36;;;;;;;3.45;1.42;;;;;;;22.22;38.87;101502.81;4972078;28;20207;-81